createdAt,value
2018-03-22T00:00:52.162Z,15.27
2018-03-22T00:03:21.250Z,11.20
2018-03-22T00:05:48.809Z,13.60
2018-03-22T00:08:16.351Z,18.85
2018-03-22T00:10:43.951Z,17.67
2018-03-22T00:13:12.473Z,25.58
2018-03-22T00:15:41.403Z,21.92
2018-03-22T00:18:08.913Z,14.68
2018-03-22T00:20:37.321Z,18.05
2018-03-22T00:23:04.883Z,24.37
2018-03-22T00:25:32.401Z,18.83
2018-03-22T00:28:00.104Z,24.42
2018-03-22T00:30:28.574Z,19.73
2018-03-22T00:32:58.309Z,16.83
2018-03-22T00:35:25.938Z,25.02
2018-03-22T00:37:53.467Z,16.65
2018-03-22T00:40:20.995Z,28.12
2018-03-22T00:42:49.269Z,18.83
2018-03-22T00:45:17.828Z,18.42
2018-03-22T00:47:45.379Z,16.60
2018-03-22T00:50:12.956Z,18.98
2018-03-22T00:52:40.459Z,25.35
2018-03-22T00:55:08.730Z,24.70
2018-03-22T00:57:37.126Z,22.92
2018-03-22T01:00:04.637Z,18.35
2018-03-22T01:02:32.123Z,19.17
2018-03-22T01:04:59.635Z,14.13
2018-03-22T01:07:27.158Z,20.25
2018-03-22T01:09:55.446Z,17.08
2018-03-22T01:12:23.716Z,20.70
2018-03-22T01:14:52.139Z,26.62
2018-03-22T01:17:19.634Z,18.50
2018-03-22T01:19:47.166Z,22.00
2018-03-22T01:22:14.669Z,19.27
2018-03-22T01:24:42.234Z,16.35
2018-03-22T01:27:09.766Z,14.43
2018-03-22T01:29:37.346Z,20.95
2018-03-22T01:32:04.851Z,22.50
2018-03-22T01:34:33.138Z,18.50
2018-03-22T01:37:02.197Z,20.08
2018-03-22T01:39:29.700Z,18.27
2018-03-22T01:41:58.018Z,15.95
2018-03-22T01:44:25.527Z,19.12
2018-03-22T01:46:53.204Z,20.02
2018-03-22T01:49:21.488Z,21.92
2018-03-22T01:51:49.794Z,20.45
2018-03-22T01:54:17.369Z,23.08
2018-03-22T01:56:44.876Z,14.93
2018-03-22T01:59:12.409Z,18.30
2018-03-22T02:01:39.927Z,11.05
2018-03-22T02:04:08.228Z,17.90
2018-03-22T02:06:35.756Z,13.75
2018-03-22T02:09:03.307Z,18.75
2018-03-22T02:11:30.854Z,18.20
2018-03-22T02:13:58.392Z,13.55
2018-03-22T02:16:25.898Z,16.77
2018-03-22T02:18:53.379Z,19.33
2018-03-22T02:21:20.878Z,18.95
2018-03-22T02:23:48.366Z,22.85
2018-03-22T02:26:15.890Z,14.15
2018-03-22T02:28:44.156Z,14.48
2018-03-22T02:31:12.449Z,20.62
2018-03-22T02:33:40.202Z,12.85
2018-03-22T02:36:08.498Z,16.98
2018-03-22T02:38:36.034Z,21.20
2018-03-22T02:41:03.594Z,13.48
2018-03-22T02:43:31.292Z,18.02
2018-03-22T02:45:58.816Z,15.63
2018-03-22T02:48:26.322Z,12.43
2018-03-22T02:50:54.632Z,12.50
2018-03-22T02:53:22.122Z,18.55
2018-03-22T02:55:49.627Z,16.30
2018-03-22T02:58:17.889Z,12.68
2018-03-22T03:00:45.397Z,27.70
2018-03-22T03:03:12.904Z,14.30
2018-03-22T03:05:40.443Z,17.60
2018-03-22T03:08:07.954Z,16.48
2018-03-22T03:10:36.230Z,24.70
2018-03-22T03:13:04.516Z,15.07
2018-03-22T03:15:32.826Z,15.18
2018-03-22T03:18:00.355Z,20.23
2018-03-22T03:20:28.688Z,13.18
2018-03-22T03:22:56.244Z,14.55
2018-03-22T03:25:23.735Z,14.80
2018-03-22T03:27:51.334Z,17.12
2018-03-22T03:30:19.623Z,16.00
2018-03-22T03:32:47.260Z,19.77
2018-03-22T03:35:18.609Z,16.75
2018-03-22T03:37:46.116Z,20.55
2018-03-22T03:40:13.650Z,17.30
2018-03-22T03:42:41.295Z,20.10
2018-03-22T03:45:08.790Z,14.10
2018-03-22T03:47:37.064Z,25.77
2018-03-22T03:50:05.959Z,17.70
2018-03-22T03:52:34.307Z,23.67
2018-03-22T03:55:01.808Z,14.98
2018-03-22T03:57:30.073Z,19.83
2018-03-22T03:59:59.081Z,19.35
2018-03-22T04:02:26.595Z,20.52
2018-03-22T04:04:54.096Z,35.70
2018-03-22T04:07:21.680Z,26.00
2018-03-22T04:09:49.999Z,18.55
2018-03-22T04:12:17.488Z,16.30
2018-03-22T04:14:45.051Z,17.17
2018-03-22T04:17:12.548Z,19.23
2018-03-22T04:19:40.838Z,22.33
2018-03-22T04:22:09.101Z,35.47
2018-03-22T04:24:38.357Z,17.60
2018-03-22T04:27:06.690Z,23.15
2018-03-22T04:29:34.219Z,18.95
2018-03-22T04:32:01.748Z,19.60
2018-03-22T04:34:29.240Z,22.23
2018-03-22T04:36:56.797Z,22.35
2018-03-22T04:39:24.328Z,23.02
2018-03-22T04:41:52.590Z,23.25
2018-03-22T04:44:20.892Z,19.55
2018-03-22T04:46:49.156Z,22.05
2018-03-22T04:49:17.450Z,20.27
2018-03-22T04:51:45.722Z,24.85
2018-03-22T04:54:13.989Z,22.65
2018-03-22T04:56:41.528Z,21.15
2018-03-22T04:59:09.141Z,20.60
2018-03-22T05:01:36.657Z,20.30
2018-03-22T05:04:04.239Z,24.42
2018-03-22T05:06:31.828Z,24.33
2018-03-22T05:09:00.110Z,21.90
2018-03-22T05:11:28.578Z,25.55
2018-03-22T05:13:56.867Z,20.00
2018-03-22T05:16:24.904Z,22.98
2018-03-22T05:18:52.524Z,24.73
2018-03-22T05:21:20.824Z,22.52
2018-03-22T05:23:48.329Z,19.30
2018-03-22T05:26:15.919Z,21.00
2018-03-22T05:28:43.494Z,21.45
2018-03-22T05:31:11.758Z,20.37
2018-03-22T05:33:40.022Z,17.42
2018-03-22T05:36:09.038Z,23.45
2018-03-22T05:38:37.304Z,25.35
2018-03-22T05:41:04.823Z,27.77
2018-03-22T05:43:33.755Z,23.02
2018-03-22T05:46:01.267Z,27.95
2018-03-22T05:48:28.783Z,22.58
2018-03-22T05:50:56.427Z,21.83
2018-03-22T05:53:23.955Z,30.40
2018-03-22T05:55:52.241Z,25.83
2018-03-22T05:58:19.901Z,27.50
2018-03-22T06:00:49.366Z,23.92
2018-03-22T06:03:16.883Z,22.17
2018-03-22T06:05:45.012Z,26.45
2018-03-22T06:08:12.531Z,27.23
2018-03-22T06:10:40.050Z,33.42
2018-03-22T06:13:07.570Z,26.77
2018-03-22T06:15:35.101Z,28.42
2018-03-22T06:18:02.623Z,29.33
2018-03-22T06:20:30.258Z,34.55
2018-03-22T06:22:57.792Z,26.08
2018-03-22T06:25:25.439Z,25.65
2018-03-22T06:27:53.133Z,30.73
2018-03-22T06:30:20.638Z,20.40
2018-03-22T06:32:48.272Z,20.98
2018-03-22T06:35:15.792Z,21.35
2018-03-22T06:37:43.309Z,21.12
2018-03-22T06:40:10.871Z,27.10
2018-03-22T06:42:38.393Z,38.88
2018-03-22T06:45:06.676Z,31.15
2018-03-22T06:47:34.952Z,30.65
2018-03-22T06:50:02.462Z,25.62
2018-03-22T06:52:29.972Z,27.42
2018-03-22T06:54:57.472Z,30.48
2018-03-22T06:57:26.175Z,27.40
2018-03-22T06:59:53.672Z,31.83
2018-03-22T07:02:21.208Z,26.92
2018-03-22T07:04:48.826Z,31.42
2018-03-22T07:07:17.142Z,31.98
2018-03-22T07:09:44.700Z,32.47
2018-03-22T07:12:12.425Z,28.35
2018-03-22T07:14:40.932Z,26.42
2018-03-22T07:17:08.405Z,31.67
2018-03-22T07:19:36.863Z,40.80
2018-03-22T07:22:04.376Z,43.45
2018-03-22T07:24:31.901Z,37.38
2018-03-22T07:26:59.569Z,35.60
2018-03-22T07:29:27.062Z,33.05
2018-03-22T07:31:54.584Z,28.67
2018-03-22T07:34:22.108Z,33.95
2018-03-22T07:36:49.666Z,43.58
2018-03-22T07:39:17.915Z,37.17
2018-03-22T07:41:46.192Z,31.60
2018-03-22T07:44:14.515Z,34.47
2018-03-22T07:46:42.032Z,33.08
2018-03-22T07:49:10.402Z,29.98
2018-03-22T07:51:37.939Z,33.17
2018-03-22T07:54:05.523Z,27.25
2018-03-22T07:56:33.024Z,32.13
2018-03-22T07:59:01.336Z,29.25
2018-03-22T08:01:29.596Z,34.55
2018-03-22T08:03:57.080Z,29.98
2018-03-22T08:06:24.611Z,48.25
2018-03-22T08:08:52.126Z,25.23
2018-03-22T08:11:19.676Z,39.15
2018-03-22T08:13:47.726Z,28.80
2018-03-22T08:16:15.837Z,20.48
2018-03-22T08:18:43.338Z,25.48
2018-03-22T08:21:11.588Z,22.80
2018-03-22T08:23:40.795Z,20.73
2018-03-22T08:26:08.312Z,24.17
2018-03-22T08:28:35.808Z,32.80
2018-03-22T08:31:03.314Z,27.20
2018-03-22T08:33:31.642Z,25.40
2018-03-22T08:36:00.172Z,29.17
2018-03-22T08:38:27.682Z,24.20
2018-03-22T08:40:56.060Z,25.65
2018-03-22T08:43:23.648Z,25.42
2018-03-22T08:45:51.161Z,28.75
2018-03-22T08:48:19.495Z,25.90
2018-03-22T08:50:46.982Z,30.33
2018-03-22T08:53:14.510Z,31.92
2018-03-22T08:55:42.103Z,31.40
2018-03-22T08:58:10.188Z,30.02
2018-03-22T09:00:39.136Z,28.48
2018-03-22T09:03:06.705Z,33.25
2018-03-22T09:05:34.220Z,35.40
2018-03-22T09:08:02.632Z,30.92
2018-03-22T09:10:30.190Z,30.02
2018-03-22T09:12:57.713Z,32.67
2018-03-22T09:15:25.220Z,33.97
2018-03-22T09:17:52.731Z,32.38
2018-03-22T09:20:20.261Z,29.33
2018-03-22T09:22:47.822Z,31.50
2018-03-22T09:25:15.334Z,39.05
2018-03-22T09:27:42.852Z,34.50
2018-03-22T09:30:10.392Z,32.72
2018-03-22T09:32:38.730Z,28.20
2018-03-22T09:35:06.278Z,35.38
2018-03-22T09:37:33.802Z,31.20
2018-03-22T09:40:02.055Z,31.75
2018-03-22T09:42:31.087Z,39.42
2018-03-22T09:44:59.366Z,43.58
2018-03-22T09:47:27.464Z,45.88
2018-03-22T09:49:54.978Z,30.30
2018-03-22T09:52:22.536Z,36.88
2018-03-22T09:54:50.076Z,38.65
2018-03-22T09:57:17.602Z,39.28
2018-03-22T09:59:45.876Z,45.20
2018-03-22T10:02:14.148Z,50.38
2018-03-22T10:04:42.473Z,49.17
2018-03-22T10:07:09.992Z,47.72
2018-03-22T10:09:38.257Z,48.65
2018-03-22T10:12:05.841Z,46.95
2018-03-22T10:14:34.129Z,39.83
2018-03-22T10:17:02.428Z,52.17
2018-03-22T10:19:29.938Z,38.33
2018-03-22T10:21:57.464Z,48.30
2018-03-22T10:24:26.612Z,53.35
2018-03-22T10:26:54.887Z,48.10
2018-03-22T10:29:23.956Z,54.50
2018-03-22T10:31:51.526Z,45.03
2018-03-22T10:34:19.225Z,49.75
2018-03-22T10:36:46.742Z,53.90
2018-03-22T10:39:14.470Z,48.72
2018-03-22T10:41:41.976Z,40.38
2018-03-22T10:44:09.496Z,46.67
2018-03-22T10:46:37.845Z,44.30
2018-03-22T10:49:05.464Z,51.40
2018-03-22T10:51:32.996Z,42.03
2018-03-22T10:54:01.194Z,47.97
2018-03-22T10:56:29.466Z,46.28
2018-03-22T10:58:57.751Z,50.12
2018-03-22T11:01:31.788Z,42.90
2018-03-22T11:03:59.358Z,50.65
2018-03-22T11:06:27.832Z,48.30
2018-03-22T11:08:55.376Z,54.13
2018-03-22T11:11:23.668Z,49.08
2018-03-22T11:13:51.289Z,44.67
2018-03-22T11:16:18.831Z,48.50
2018-03-22T11:18:46.393Z,46.92
2018-03-22T11:21:13.923Z,41.00
2018-03-22T11:23:42.188Z,44.72
2018-03-22T11:26:10.498Z,45.05
2018-03-22T11:28:38.036Z,49.13
2018-03-22T11:31:06.302Z,44.72
2018-03-22T11:33:33.825Z,45.15
2018-03-22T11:36:01.342Z,38.63
2018-03-22T11:38:29.750Z,43.58
2018-03-22T11:40:57.296Z,47.62
2018-03-22T11:43:25.646Z,44.15
2018-03-22T11:45:53.184Z,46.90
2018-03-22T11:48:20.702Z,47.53
2018-03-22T11:50:49.030Z,42.42
2018-03-22T11:53:16.630Z,49.40
2018-03-22T11:55:45.724Z,42.15
2018-03-22T11:58:14.052Z,51.83
2018-03-22T12:00:41.658Z,54.85
2018-03-22T12:03:10.187Z,47.90
2018-03-22T12:05:38.468Z,49.55
2018-03-22T12:08:06.740Z,47.38
2018-03-22T12:10:35.038Z,42.35
2018-03-22T12:13:03.292Z,41.50
2018-03-22T12:15:30.838Z,46.30
2018-03-22T12:17:58.338Z,45.00
2018-03-22T12:20:26.782Z,43.92
2018-03-22T12:22:55.033Z,44.25
2018-03-22T12:25:22.557Z,42.28
2018-03-22T12:27:50.933Z,47.30
2018-03-22T12:30:19.236Z,44.13
2018-03-22T12:32:47.493Z,42.92
2018-03-22T12:35:15.022Z,42.62
2018-03-22T12:37:42.681Z,46.67
2018-03-22T12:40:10.173Z,44.78
2018-03-22T12:42:37.682Z,49.92
2018-03-22T12:45:05.224Z,39.75
2018-03-22T12:47:34.054Z,44.10
2018-03-22T12:50:01.818Z,41.42
2018-03-22T12:52:29.468Z,44.20
2018-03-22T12:54:56.962Z,45.78
2018-03-22T12:57:24.500Z,38.67
2018-03-22T12:59:52.011Z,47.17
2018-03-22T13:02:19.573Z,46.65
2018-03-22T13:04:47.091Z,44.40
2018-03-22T13:07:14.608Z,40.55
2018-03-22T13:09:42.110Z,43.87
2018-03-22T13:12:10.402Z,44.05
2018-03-22T13:14:37.940Z,39.17
2018-03-22T13:17:06.232Z,41.70
2018-03-22T13:19:34.510Z,36.33
2018-03-22T13:22:04.586Z,43.40
2018-03-22T13:24:32.379Z,36.53
2018-03-22T13:26:59.903Z,43.22
2018-03-22T13:29:28.138Z,56.45
2018-03-22T13:31:56.408Z,42.80
2018-03-22T13:34:24.556Z,39.60
2018-03-22T13:36:52.104Z,44.88
2018-03-22T13:39:19.609Z,41.58
2018-03-22T13:41:47.442Z,37.25
2018-03-22T13:44:15.298Z,38.88
2018-03-22T13:46:42.866Z,42.30
2018-03-22T13:49:10.399Z,41.97
2018-03-22T13:51:38.690Z,42.90
2018-03-22T13:54:10.344Z,42.28
2018-03-22T13:56:39.018Z,32.83
2018-03-22T13:59:07.282Z,35.28
2018-03-22T14:01:34.793Z,33.78
2018-03-22T14:04:02.797Z,30.58
2018-03-22T14:06:30.320Z,37.45
2018-03-22T14:08:57.828Z,30.77
2018-03-22T14:11:26.732Z,28.08
2018-03-22T14:13:54.242Z,27.08
2018-03-22T14:16:21.758Z,26.98
2018-03-22T14:18:49.285Z,28.27
2018-03-22T14:21:16.772Z,40.22
2018-03-22T14:23:44.386Z,30.05
2018-03-22T14:26:11.986Z,23.30
2018-03-22T14:28:39.530Z,31.23
2018-03-22T14:31:07.056Z,33.00
2018-03-22T14:33:34.565Z,29.17
2018-03-22T14:36:02.146Z,28.45
2018-03-22T14:38:29.674Z,19.77
2018-03-22T14:40:57.955Z,27.83
2018-03-22T14:43:26.266Z,24.87
2018-03-22T14:45:53.828Z,28.15
2018-03-22T14:48:21.346Z,26.20
2018-03-22T14:50:49.572Z,21.73
2018-03-22T14:53:17.108Z,31.13
2018-03-22T14:55:45.418Z,26.00
2018-03-22T14:58:12.935Z,25.67
2018-03-22T15:00:40.472Z,27.20
2018-03-22T15:03:08.002Z,29.70
2018-03-22T15:05:35.556Z,26.55
2018-03-22T15:08:03.071Z,32.58
2018-03-22T15:10:30.630Z,31.00
2018-03-22T15:12:58.881Z,24.98
2018-03-22T15:15:27.710Z,25.37
2018-03-22T15:17:55.238Z,23.80
2018-03-22T15:20:22.844Z,27.50
2018-03-22T15:22:50.366Z,25.97
2018-03-22T15:25:17.896Z,23.80
2018-03-22T15:27:46.172Z,27.62
2018-03-22T15:30:14.467Z,30.67
2018-03-22T15:32:41.997Z,25.83
2018-03-22T15:35:09.492Z,27.10
2018-03-22T15:37:37.789Z,27.87
2018-03-22T15:40:05.320Z,29.55
2018-03-22T15:42:33.597Z,31.02
2018-03-22T15:45:01.126Z,30.73
2018-03-22T15:47:28.630Z,29.97
2018-03-22T15:49:56.922Z,29.17
2018-03-22T15:52:25.176Z,27.67
2018-03-22T15:54:52.706Z,23.40
2018-03-22T15:57:20.216Z,30.55
2018-03-22T15:59:47.744Z,27.35
2018-03-22T16:02:15.722Z,31.08
2018-03-22T16:04:44.520Z,28.00
2018-03-22T16:07:12.218Z,30.25
2018-03-22T16:09:41.036Z,26.83
2018-03-22T16:12:08.558Z,29.05
2018-03-22T16:14:36.073Z,26.67
2018-03-22T16:17:03.634Z,22.15
2018-03-22T16:19:31.212Z,30.25
2018-03-22T16:21:58.847Z,27.33
2018-03-22T16:24:28.558Z,27.65
2018-03-22T16:26:56.102Z,30.07
2018-03-22T16:29:23.664Z,23.95
2018-03-22T16:31:51.177Z,30.98
2018-03-22T16:34:18.700Z,29.80
2018-03-22T16:36:46.979Z,30.67
2018-03-22T16:39:15.276Z,28.27
2018-03-22T16:41:43.854Z,29.20
2018-03-22T16:44:12.168Z,30.42
2018-03-22T16:46:39.680Z,33.35
2018-03-22T16:49:07.190Z,31.90
2018-03-22T16:51:34.818Z,33.73
2018-03-22T16:54:03.146Z,35.13
2018-03-22T16:56:30.694Z,33.80
2018-03-22T16:58:58.238Z,37.90
2018-03-22T17:01:26.515Z,35.30
2018-03-22T17:03:54.931Z,25.30
2018-03-22T17:06:22.452Z,36.22
2018-03-22T17:08:50.109Z,33.92
2018-03-22T17:11:17.820Z,28.87
2018-03-22T17:13:45.330Z,28.23
2018-03-22T17:16:12.842Z,35.97
2018-03-22T17:18:40.359Z,29.90
2018-03-22T17:21:08.933Z,30.35
2018-03-22T17:23:36.591Z,26.90
2018-03-22T17:26:04.097Z,32.28
2018-03-22T17:28:31.643Z,23.38
2018-03-22T17:30:59.296Z,33.85
2018-03-22T17:33:26.938Z,34.85
2018-03-22T17:35:54.442Z,25.30
2018-03-22T17:38:22.757Z,27.30
2018-03-22T17:40:50.289Z,26.60
2018-03-22T17:43:17.953Z,25.70
2018-03-22T17:45:45.468Z,29.33
2018-03-22T17:48:12.955Z,28.02
2018-03-22T17:50:40.500Z,28.40
2018-03-22T17:53:08.062Z,31.25
2018-03-22T17:55:35.630Z,29.50
2018-03-22T17:58:03.170Z,32.83
2018-03-22T18:00:31.549Z,31.77
2018-03-22T18:02:59.918Z,31.52
2018-03-22T18:05:28.213Z,34.08
2018-03-22T18:07:56.576Z,34.90
2018-03-22T18:10:24.085Z,38.00
2018-03-22T18:12:51.630Z,41.60
2018-03-22T18:15:19.906Z,36.50
2018-03-22T18:17:48.186Z,40.95
2018-03-22T18:20:16.548Z,31.75
2018-03-22T18:22:44.882Z,34.95
2018-03-22T18:25:12.470Z,38.13
2018-03-22T18:27:40.024Z,36.30
2018-03-22T18:30:07.538Z,37.30
2018-03-22T18:32:35.874Z,39.45
2018-03-22T18:35:03.589Z,37.90
2018-03-22T18:37:31.871Z,35.60
2018-03-22T18:40:00.159Z,40.63
2018-03-22T18:42:27.770Z,37.93
2018-03-22T18:44:55.253Z,37.30
2018-03-22T18:47:22.870Z,36.80
2018-03-22T18:49:50.389Z,35.00
2018-03-22T18:52:17.920Z,36.42
2018-03-22T18:54:45.438Z,36.80
2018-03-22T18:57:13.922Z,30.10
2018-03-22T18:59:42.196Z,37.77
2018-03-22T19:02:09.693Z,33.27
2018-03-22T19:04:37.240Z,40.50
2018-03-22T19:07:05.508Z,34.10
2018-03-22T19:09:34.336Z,34.90
2018-03-22T19:12:01.887Z,35.37
2018-03-22T19:14:29.388Z,37.13
2018-03-22T19:16:56.900Z,30.93
2018-03-22T19:19:25.166Z,34.37
2018-03-22T19:21:52.695Z,36.17
2018-03-22T19:24:20.199Z,35.07
2018-03-22T19:26:48.510Z,44.40
2018-03-22T19:29:16.079Z,32.93
2018-03-22T19:31:43.680Z,34.73
2018-03-22T19:34:11.191Z,31.50
2018-03-22T19:36:39.467Z,33.90
2018-03-22T19:39:07.767Z,36.73
2018-03-22T19:41:35.271Z,39.30
2018-03-22T19:44:02.795Z,40.70
2018-03-22T19:46:30.319Z,36.93
2018-03-22T19:48:57.916Z,42.70
2018-03-22T19:51:25.446Z,44.30
2018-03-22T19:53:52.967Z,44.03
2018-03-22T19:56:20.540Z,46.63
2018-03-22T19:58:48.058Z,42.47
2018-03-22T20:01:16.309Z,35.73
2018-03-22T20:03:44.004Z,41.97
2018-03-22T20:06:12.288Z,41.17
2018-03-22T20:08:40.521Z,43.83
2018-03-22T20:11:08.043Z,42.80
2018-03-22T20:13:35.584Z,34.10
2018-03-22T20:16:03.143Z,38.90
2018-03-22T20:18:31.475Z,37.93
2018-03-22T20:20:59.021Z,41.70
2018-03-22T20:23:26.574Z,41.93
2018-03-22T20:25:54.132Z,44.20
2018-03-22T20:28:21.640Z,41.23
2018-03-22T20:30:49.123Z,38.47
2018-03-22T20:33:16.700Z,35.20
2018-03-22T20:35:44.276Z,38.83
2018-03-22T20:38:12.702Z,41.27
2018-03-22T20:40:40.224Z,43.73
2018-03-22T20:43:08.539Z,39.40
2018-03-22T20:45:36.966Z,45.43
2018-03-22T20:48:06.003Z,47.80
2018-03-22T20:50:34.271Z,42.07
2018-03-22T20:53:02.558Z,42.50
2018-03-22T20:55:30.824Z,47.50
2018-03-22T20:57:58.369Z,40.97
2018-03-22T21:00:25.930Z,48.17
2018-03-22T21:02:53.465Z,36.47
2018-03-22T21:05:21.687Z,42.53
2018-03-22T21:07:49.203Z,50.30
2018-03-22T21:10:16.842Z,41.70
2018-03-22T21:12:45.191Z,39.93
2018-03-22T21:15:12.704Z,46.13
2018-03-22T21:17:40.214Z,43.00
2018-03-22T21:20:07.809Z,39.43
2018-03-22T21:22:35.326Z,37.70
2018-03-22T21:25:02.873Z,36.47
2018-03-22T21:27:30.415Z,34.27
2018-03-22T21:29:57.922Z,37.60
2018-03-22T21:32:26.794Z,40.00
2018-03-22T21:34:55.052Z,40.00
2018-03-22T21:37:23.377Z,29.20
2018-03-22T21:39:50.878Z,41.03
2018-03-22T21:42:19.151Z,30.20
2018-03-22T21:44:46.745Z,38.23
2018-03-22T21:47:26.226Z,28.70
2018-03-22T21:49:53.805Z,27.97
2018-03-22T21:52:33.329Z,28.40
2018-03-22T21:55:01.720Z,32.10
2018-03-22T21:57:29.229Z,32.77
2018-03-22T21:59:56.768Z,33.43
2018-03-22T22:02:25.166Z,33.60
2018-03-22T22:04:53.454Z,25.43
2018-03-22T22:07:21.823Z,28.97
2018-03-22T22:09:52.549Z,31.90
2018-03-22T22:12:21.149Z,32.90
2018-03-22T22:14:49.475Z,37.83
2018-03-22T22:17:17.027Z,26.77
2018-03-22T22:19:44.529Z,37.37
2018-03-22T22:22:12.068Z,36.07
2018-03-22T22:24:39.616Z,41.73
2018-03-22T22:27:07.163Z,39.13
2018-03-22T22:29:36.443Z,45.23
2018-03-22T22:32:04.436Z,44.27
2018-03-22T22:34:32.713Z,41.13
2018-03-22T22:37:00.982Z,42.70
2018-03-22T22:39:28.516Z,42.97
2018-03-22T22:41:56.233Z,45.80
2018-03-22T22:44:24.465Z,39.50
2018-03-22T22:46:52.056Z,38.87
2018-03-22T22:49:19.570Z,35.90
2018-03-22T22:51:50.987Z,35.90
2018-03-22T22:54:20.046Z,33.17
2018-03-22T22:56:47.577Z,37.10
2018-03-22T22:59:15.272Z,39.27
2018-03-22T23:01:43.072Z,41.50
2018-03-22T23:04:11.359Z,36.33
2018-03-22T23:06:39.639Z,36.27
2018-03-22T23:09:07.913Z,43.40
2018-03-22T23:11:35.577Z,40.67
2018-03-22T23:14:03.860Z,35.40
2018-03-22T23:16:31.360Z,35.87
2018-03-22T23:18:58.881Z,38.87
2018-03-22T23:21:26.387Z,33.73
2018-03-22T23:23:53.887Z,41.57
2018-03-22T23:26:21.378Z,44.00
2018-03-22T23:28:49.661Z,47.83
2018-03-22T23:31:18.903Z,35.07
2018-03-22T23:33:46.406Z,35.30
2018-03-22T23:36:13.910Z,32.77
2018-03-22T23:38:41.477Z,36.40
2018-03-22T23:41:08.977Z,32.27
2018-03-22T23:43:36.482Z,32.70
2018-03-22T23:46:04.772Z,31.37
2018-03-22T23:48:33.085Z,27.50
2018-03-22T23:51:00.590Z,31.50
2018-03-22T23:53:28.129Z,20.70
2018-03-22T23:55:55.619Z,24.80
2018-03-22T23:58:24.625Z,26.00
